Time;durP1;ratioP1;P1;durP2;ratioP2;P2;SDS_P1;SDS_P2;PMS_P1;PMS_P2;Temp;Humidity;BMP_temperature;BMP_pressure;BME280_temperature;BME280_humidity;BME280_pressure;Samples;Min_cycle;Max_cycle;Signal;HPM_P1;HPM_P2
2021/11/13 00:00:21;;;;;;;44.17;32.33;;;;;;;;;;690764;28;868;-63
2021/11/13 00:00:41;;;;;;;45.42;32.65;;;;;;;;;;690875;28;897;-63
2021/11/13 00:01:02;;;;;;;44.30;32.40;;;;;;;;;;690653;28;813;-61
2021/11/13 00:01:22;;;;;;;46.40;33.22;;;;;;;;;;690674;28;836;-63
2021/11/13 00:01:48;;;;;;;44.83;32.57;;;;;;;;;;690471;28;979;-64
2021/11/13 00:02:08;;;;;;;45.13;32.35;;;;;;;;;;690431;28;952;-62
2021/11/13 00:02:28;;;;;;;43.22;31.23;;;;;;;;;;690614;28;868;-63
2021/11/13 00:02:49;;;;;;;46.53;31.17;;;;;;;;;;690061;28;861;-63
2021/11/13 00:03:11;;;;;;;42.03;31.30;;;;;;;;;;690422;28;1360;-64
2021/11/13 00:03:31;;;;;;;42.65;32.03;;;;;;;;;;690792;28;900;-64
2021/11/13 00:03:51;;;;;;;39.97;31.20;;;;;;;;;;690602;28;939;-61
2021/11/13 00:04:12;;;;;;;39.23;30.67;;;;;;;;;;690721;28;981;-61
2021/11/13 00:04:32;;;;;;;38.57;30.37;;;;;;;;;;690851;28;861;-62
2021/11/13 00:04:52;;;;;;;43.60;30.55;;;;;;;;;;690716;28;844;-62
2021/11/13 00:05:12;;;;;;;50.13;31.00;;;;;;;;;;690858;28;1022;-64
2021/11/13 00:05:32;;;;;;;44.17;30.43;;;;;;;;;;690992;28;890;-62
2021/11/13 00:05:53;;;;;;;40.93;29.80;;;;;;;;;;691129;28;891;-61
2021/11/13 00:06:13;;;;;;;39.92;29.50;;;;;;;;;;691436;28;852;-61
2021/11/13 00:06:33;;;;;;;41.60;30.00;;;;;;;;;;691270;28;885;-64
2021/11/13 00:06:53;;;;;;;41.60;30.70;;;;;;;;;;691237;28;931;-64
2021/11/13 00:07:13;;;;;;;41.73;30.87;;;;;;;;;;691503;28;801;-63
2021/11/13 00:07:33;;;;;;;41.57;30.67;;;;;;;;;;691124;28;1038;-67
2021/11/13 00:07:54;;;;;;;43.70;30.55;;;;;;;;;;691276;28;796;-61
2021/11/13 00:08:14;;;;;;;39.87;30.40;;;;;;;;;;691277;28;962;-63
2021/11/13 00:08:34;;;;;;;38.37;30.23;;;;;;;;;;691324;28;844;-63
2021/11/13 00:08:54;;;;;;;39.93;30.73;;;;;;;;;;691295;28;876;-63
2021/11/13 00:09:14;;;;;;;42.38;30.58;;;;;;;;;;691474;28;923;-62
2021/11/13 00:09:35;;;;;;;40.37;30.33;;;;;;;;;;691317;28;800;-64
2021/11/13 00:09:55;;;;;;;42.23;30.83;;;;;;;;;;691220;28;1009;-62
2021/11/13 00:10:16;;;;;;;45.22;31.20;;;;;;;;;;691350;28;893;-62
2021/11/13 00:10:39;;;;;;;43.22;30.58;;;;;;;;;;690983;28;1405;-63
2021/11/13 00:10:59;;;;;;;39.20;30.48;;;;;;;;;;691422;28;885;-64
2021/11/13 00:11:22;;;;;;;40.90;30.92;;;;;;;;;;691387;28;801;-65
2021/11/13 00:11:42;;;;;;;41.00;31.02;;;;;;;;;;691436;28;904;-63
2021/11/13 00:12:03;;;;;;;39.67;31.53;;;;;;;;;;691207;28;886;-63
2021/11/13 00:12:23;;;;;;;39.23;31.10;;;;;;;;;;691350;28;979;-60
2021/11/13 00:12:44;;;;;;;44.22;31.52;;;;;;;;;;691071;28;1269;-62
2021/11/13 00:13:06;;;;;;;44.17;31.83;;;;;;;;;;691470;28;1352;-62
2021/11/13 00:13:27;;;;;;;42.08;30.98;;;;;;;;;;691577;28;925;-63
2021/11/13 00:13:52;;;;;;;43.05;31.40;;;;;;;;;;692017;28;846;-62
2021/11/13 00:14:20;;;;;;;42.80;31.38;;;;;;;;;;691289;28;875;-65
2021/11/13 00:14:41;;;;;;;39.95;30.75;;;;;;;;;;691543;28;907;-62
2021/11/13 00:15:02;;;;;;;42.03;30.83;;;;;;;;;;691679;28;896;-62
2021/11/13 00:15:23;;;;;;;40.58;30.05;;;;;;;;;;691603;28;959;-63
2021/11/13 00:15:43;;;;;;;39.57;30.67;;;;;;;;;;691761;28;821;-64
2021/11/13 00:16:03;;;;;;;37.75;29.92;;;;;;;;;;691459;28;1007;-62
2021/11/13 00:16:24;;;;;;;38.80;29.67;;;;;;;;;;691410;28;1062;-63
2021/11/13 00:16:44;;;;;;;39.60;29.87;;;;;;;;;;691524;28;872;-62
2021/11/13 00:17:05;;;;;;;39.25;30.17;;;;;;;;;;691423;28;963;-63
2021/11/13 00:17:27;;;;;;;37.83;29.40;;;;;;;;;;691264;28;876;-63
2021/11/13 00:17:51;;;;;;;39.03;29.73;;;;;;;;;;691204;28;893;-63
2021/11/13 00:18:11;;;;;;;39.83;30.63;;;;;;;;;;691072;28;956;-63
2021/11/13 00:18:35;;;;;;;38.53;29.97;;;;;;;;;;691230;28;880;-63
2021/11/13 00:18:55;;;;;;;39.75;30.02;;;;;;;;;;691306;28;907;-63
2021/11/13 00:19:16;;;;;;;40.00;29.90;;;;;;;;;;691280;28;793;-62
2021/11/13 00:19:36;;;;;;;39.13;29.60;;;;;;;;;;691211;28;963;-69
2021/11/13 00:19:56;;;;;;;39.57;29.63;;;;;;;;;;691158;28;1911;-63
2021/11/13 00:20:17;;;;;;;39.87;29.40;;;;;;;;;;691233;28;874;-64
2021/11/13 00:20:37;;;;;;;39.00;29.20;;;;;;;;;;691291;28;793;-63
2021/11/13 00:20:57;;;;;;;37.78;29.50;;;;;;;;;;691757;28;951;-63
2021/11/13 00:21:17;;;;;;;38.73;29.23;;;;;;;;;;692135;28;1094;-63
2021/11/13 00:21:38;;;;;;;37.37;28.40;;;;;;;;;;692419;28;884;-63
2021/11/13 00:21:58;;;;;;;37.00;28.30;;;;;;;;;;691814;28;893;-61
2021/11/13 00:22:18;;;;;;;35.63;27.57;;;;;;;;;;691980;28;971;-64
2021/11/13 00:22:38;;;;;;;33.63;26.33;;;;;;;;;;691817;28;976;-63
2021/11/13 00:22:59;;;;;;;33.47;25.00;;;;;;;;;;691900;28;1031;-63
2021/11/13 00:23:19;;;;;;;32.42;25.15;;;;;;;;;;692702;28;1233;-63
2021/11/13 00:23:40;;;;;;;34.53;26.03;;;;;;;;;;692744;28;924;-62
2021/11/13 00:24:00;;;;;;;34.40;25.92;;;;;;;;;;692676;28;1015;-62
2021/11/13 00:24:20;;;;;;;35.93;26.23;;;;;;;;;;692249;28;967;-61
2021/11/13 00:24:40;;;;;;;35.97;26.83;;;;;;;;;;692549;28;809;-63
2021/11/13 00:25:03;;;;;;;35.22;25.95;;;;;;;;;;691730;28;1179;-63
2021/11/13 00:25:24;;;;;;;34.00;25.13;;;;;;;;;;692406;28;1225;-65
2021/11/13 00:25:46;;;;;;;29.07;22.07;;;;;;;;;;692241;28;1183;-61
2021/11/13 00:26:07;;;;;;;27.20;20.55;;;;;;;;;;691755;28;952;-63
2021/11/13 00:26:27;;;;;;;25.50;19.97;;;;;;;;;;691562;28;920;-64
2021/11/13 00:26:47;;;;;;;27.10;20.13;;;;;;;;;;691152;28;836;-66
2021/11/13 00:27:07;;;;;;;33.03;21.00;;;;;;;;;;691243;28;975;-63
2021/11/13 00:27:27;;;;;;;30.20;20.90;;;;;;;;;;691324;28;868;-63
2021/11/13 00:27:48;;;;;;;27.30;20.53;;;;;;;;;;691134;28;853;-62
2021/11/13 00:28:08;;;;;;;31.80;21.23;;;;;;;;;;691202;28;868;-65
2021/11/13 00:28:28;;;;;;;42.03;21.50;;;;;;;;;;691171;28;1042;-62
2021/11/13 00:28:48;;;;;;;33.87;20.77;;;;;;;;;;691134;28;892;-63
2021/11/13 00:29:09;;;;;;;26.77;20.43;;;;;;;;;;691235;28;892;-61
2021/11/13 00:29:29;;;;;;;32.70;20.70;;;;;;;;;;691250;28;944;-62
2021/11/13 00:29:49;;;;;;;37.63;20.17;;;;;;;;;;691091;28;861;-66
2021/11/13 00:30:10;;;;;;;34.40;19.60;;;;;;;;;;691215;28;810;-63
2021/11/13 00:30:30;;;;;;;31.15;20.15;;;;;;;;;;691213;28;929;-62
2021/11/13 00:30:51;;;;;;;27.00;19.67;;;;;;;;;;691150;28;856;-62
2021/11/13 00:31:11;;;;;;;26.43;19.47;;;;;;;;;;691181;28;907;-63
2021/11/13 00:31:31;;;;;;;25.50;19.20;;;;;;;;;;691210;28;810;-62
2021/11/13 00:31:53;;;;;;;25.85;19.33;;;;;;;;;;691262;28;911;-62
2021/11/13 00:32:14;;;;;;;26.73;19.40;;;;;;;;;;691141;28;940;-62
2021/11/13 00:32:34;;;;;;;31.53;19.80;;;;;;;;;;691122;28;903;-63
2021/11/13 00:32:54;;;;;;;30.80;19.73;;;;;;;;;;690870;28;809;-61
2021/11/13 00:33:14;;;;;;;28.73;19.67;;;;;;;;;;691098;28;1330;-64
2021/11/13 00:33:34;;;;;;;26.53;19.47;;;;;;;;;;691232;28;840;-66
2021/11/13 00:33:55;;;;;;;29.17;20.07;;;;;;;;;;691211;28;987;-62
2021/11/13 00:34:15;;;;;;;34.60;20.40;;;;;;;;;;690964;28;1202;-63
2021/11/13 00:34:35;;;;;;;31.20;20.20;;;;;;;;;;691096;28;1010;-63
2021/11/13 00:34:55;;;;;;;26.47;19.77;;;;;;;;;;690969;28;833;-63
2021/11/13 00:35:16;;;;;;;27.30;19.90;;;;;;;;;;691036;28;870;-64
2021/11/13 00:35:39;;;;;;;27.88;19.80;;;;;;;;;;690974;28;802;-62
2021/11/13 00:35:59;;;;;;;32.10;19.60;;;;;;;;;;690931;28;1370;-61
2021/11/13 00:36:19;;;;;;;40.57;20.10;;;;;;;;;;690911;28;999;-61
2021/11/13 00:36:39;;;;;;;33.57;20.60;;;;;;;;;;690980;28;856;-61
2021/11/13 00:36:59;;;;;;;36.97;21.10;;;;;;;;;;691167;28;877;-62
2021/11/13 00:37:22;;;;;;;33.40;21.45;;;;;;;;;;690892;28;1188;-62
2021/11/13 00:37:42;;;;;;;37.03;22.25;;;;;;;;;;691210;28;916;-60
2021/11/13 00:38:03;;;;;;;38.47;21.73;;;;;;;;;;691135;28;1018;-62
2021/11/13 00:38:23;;;;;;;38.77;22.20;;;;;;;;;;690979;28;1285;-63
2021/11/13 00:38:43;;;;;;;33.07;21.97;;;;;;;;;;691214;28;956;-62
2021/11/13 00:39:04;;;;;;;31.65;21.27;;;;;;;;;;691123;28;882;-62
2021/11/13 00:39:24;;;;;;;34.78;21.10;;;;;;;;;;691164;28;832;-61
2021/11/13 00:39:45;;;;;;;37.47;21.47;;;;;;;;;;691131;28;1965;-65
2021/11/13 00:40:06;;;;;;;32.80;20.73;;;;;;;;;;691127;28;775;-62
2021/11/13 00:40:32;;;;;;;32.60;21.08;;;;;;;;;;690934;28;829;-62
2021/11/13 00:40:53;;;;;;;33.38;20.13;;;;;;;;;;691154;28;912;-62
2021/11/13 00:41:13;;;;;;;27.38;19.58;;;;;;;;;;691064;28;1014;-62
2021/11/13 00:41:33;;;;;;;31.30;19.70;;;;;;;;;;691193;28;916;-61
2021/11/13 00:41:53;;;;;;;28.03;20.33;;;;;;;;;;691192;28;860;-63
2021/11/13 00:42:16;;;;;;;28.42;20.75;;;;;;;;;;691099;28;785;-62
2021/11/13 00:42:37;;;;;;;28.45;20.42;;;;;;;;;;691083;28;962;-64
2021/11/13 00:42:57;;;;;;;29.30;20.37;;;;;;;;;;690896;28;797;-62
2021/11/13 00:43:20;;;;;;;26.30;19.73;;;;;;;;;;690936;28;1404;-63
2021/11/13 00:43:40;;;;;;;24.55;19.60;;;;;;;;;;691239;28;840;-63
2021/11/13 00:44:00;;;;;;;24.90;19.87;;;;;;;;;;691061;28;1098;-62
2021/11/13 00:44:23;;;;;;;25.53;20.20;;;;;;;;;;691201;28;852;-63
2021/11/13 00:44:43;;;;;;;29.90;19.88;;;;;;;;;;691197;28;911;-62
2021/11/13 00:45:03;;;;;;;29.52;20.02;;;;;;;;;;691194;28;967;-63
2021/11/13 00:45:24;;;;;;;28.20;20.07;;;;;;;;;;691086;28;960;-60
2021/11/13 00:45:44;;;;;;;25.98;19.70;;;;;;;;;;691224;28;817;-63
2021/11/13 00:46:05;;;;;;;23.50;18.23;;;;;;;;;;691135;28;885;-63
2021/11/13 00:46:25;;;;;;;26.23;19.33;;;;;;;;;;691077;28;1486;-63
2021/11/13 00:46:45;;;;;;;26.13;19.20;;;;;;;;;;691277;28;864;-62
2021/11/13 00:47:05;;;;;;;25.53;18.93;;;;;;;;;;691130;28;960;-63
2021/11/13 00:47:26;;;;;;;26.85;18.10;;;;;;;;;;691077;28;884;-64
2021/11/13 00:47:46;;;;;;;26.53;17.70;;;;;;;;;;691209;28;955;-63
2021/11/13 00:48:09;;;;;;;24.63;17.77;;;;;;;;;;691028;28;1155;-61
2021/11/13 00:48:29;;;;;;;25.30;16.42;;;;;;;;;;690965;28;868;-63
2021/11/13 00:48:49;;;;;;;29.73;16.17;;;;;;;;;;691050;28;976;-63
2021/11/13 00:49:10;;;;;;;30.57;16.10;;;;;;;;;;691094;28;892;-62
2021/11/13 00:49:30;;;;;;;27.73;15.83;;;;;;;;;;691078;28;813;-62
2021/11/13 00:49:50;;;;;;;28.87;17.20;;;;;;;;;;691070;28;927;-63
2021/11/13 00:50:12;;;;;;;29.13;17.80;;;;;;;;;;691263;28;777;-62
2021/11/13 00:50:34;;;;;;;29.13;17.75;;;;;;;;;;690961;28;1129;-62
2021/11/13 00:50:54;;;;;;;25.75;17.52;;;;;;;;;;691247;28;820;-62
2021/11/13 00:51:14;;;;;;;28.33;17.73;;;;;;;;;;691424;28;852;-63
2021/11/13 00:51:35;;;;;;;28.73;18.17;;;;;;;;;;691293;28;970;-63
2021/11/13 00:51:55;;;;;;;27.70;18.33;;;;;;;;;;691168;28;1027;-61
2021/11/13 00:52:16;;;;;;;28.67;18.80;;;;;;;;;;691266;28;830;-63
2021/11/13 00:52:39;;;;;;;27.95;18.58;;;;;;;;;;691422;28;936;-64
2021/11/13 00:52:59;;;;;;;29.08;19.05;;;;;;;;;;690828;28;1398;-62
2021/11/13 00:53:19;;;;;;;30.03;19.37;;;;;;;;;;691190;28;899;-65
2021/11/13 00:53:39;;;;;;;27.97;19.13;;;;;;;;;;690868;28;826;-62
2021/11/13 00:54:00;;;;;;;33.63;20.10;;;;;;;;;;690941;28;1003;-62
2021/11/13 00:54:20;;;;;;;32.75;20.30;;;;;;;;;;690865;28;1016;-63
2021/11/13 00:54:40;;;;;;;32.55;20.58;;;;;;;;;;690874;28;975;-61
2021/11/13 00:55:01;;;;;;;32.80;20.07;;;;;;;;;;691002;28;813;-61
2021/11/13 00:55:21;;;;;;;28.10;18.30;;;;;;;;;;691020;28;857;-61
2021/11/13 00:55:41;;;;;;;29.17;16.38;;;;;;;;;;691084;28;878;-64
2021/11/13 00:56:03;;;;;;;28.77;16.10;;;;;;;;;;691159;28;901;-61
2021/11/13 00:56:23;;;;;;;31.02;17.63;;;;;;;;;;691118;28;893;-62
2021/11/13 00:56:43;;;;;;;28.85;17.63;;;;;;;;;;691123;28;801;-62
2021/11/13 00:57:04;;;;;;;35.27;18.63;;;;;;;;;;691069;28;1012;-60
2021/11/13 00:57:24;;;;;;;35.53;18.73;;;;;;;;;;691206;28;798;-61
2021/11/13 00:57:44;;;;;;;29.20;17.70;;;;;;;;;;691101;28;785;-62
2021/11/13 00:58:05;;;;;;;27.93;15.20;;;;;;;;;;691111;28;825;-62
2021/11/13 00:58:26;;;;;;;28.98;12.32;;;;;;;;;;691065;28;987;-62
2021/11/13 00:58:47;;;;;;;26.77;11.07;;;;;;;;;;691129;28;893;-63
2021/11/13 00:59:07;;;;;;;29.30;8.65;;;;;;;;;;691139;28;969;-63
2021/11/13 00:59:27;;;;;;;30.20;8.97;;;;;;;;;;691120;28;971;-64
2021/11/13 00:59:47;;;;;;;27.43;9.13;;;;;;;;;;691143;28;1883;-61
2021/11/13 01:00:09;;;;;;;28.67;9.30;;;;;;;;;;691116;28;963;-62
2021/11/13 01:00:29;;;;;;;31.52;11.18;;;;;;;;;;691014;28;1290;-64
2021/11/13 01:00:50;;;;;;;30.07;13.63;;;;;;;;;;691295;28;955;-61
2021/11/13 01:01:10;;;;;;;32.27;16.00;;;;;;;;;;691136;28;1034;-63
2021/11/13 01:01:30;;;;;;;32.40;16.70;;;;;;;;;;691395;28;833;-65
2021/11/13 01:01:50;;;;;;;32.80;17.03;;;;;;;;;;691401;28;852;-63
2021/11/13 01:02:10;;;;;;;33.93;16.60;;;;;;;;;;691323;28;883;-62
2021/11/13 01:02:30;;;;;;;38.40;15.70;;;;;;;;;;691254;28;833;-62
2021/11/13 01:02:51;;;;;;;38.67;15.80;;;;;;;;;;690763;28;1154;-61
2021/11/13 01:03:11;;;;;;;33.25;15.43;;;;;;;;;;691111;28;1239;-61
2021/11/13 01:03:32;;;;;;;31.83;14.83;;;;;;;;;;691045;28;853;-61
2021/11/13 01:03:52;;;;;;;31.80;15.05;;;;;;;;;;691185;28;943;-63
2021/11/13 01:04:13;;;;;;;28.97;13.17;;;;;;;;;;691023;28;872;-61
2021/11/13 01:04:34;;;;;;;30.20;10.88;;;;;;;;;;691077;28;900;-61
2021/11/13 01:04:54;;;;;;;29.13;10.75;;;;;;;;;;691167;28;983;-61
2021/11/13 01:05:14;;;;;;;27.27;9.47;;;;;;;;;;691053;28;829;-61
2021/11/13 01:05:34;;;;;;;23.77;8.20;;;;;;;;;;691212;28;773;-61
2021/11/13 01:05:55;;;;;;;25.73;8.15;;;;;;;;;;691100;28;1031;-62
2021/11/13 01:06:15;;;;;;;25.47;7.87;;;;;;;;;;690903;28;1011;-62
2021/11/13 01:06:35;;;;;;;28.33;7.27;;;;;;;;;;691054;28;863;-61
2021/11/13 01:06:55;;;;;;;26.23;6.83;;;;;;;;;;691169;28;931;-63
2021/11/13 01:07:15;;;;;;;25.30;6.20;;;;;;;;;;691033;28;825;-64
2021/11/13 01:07:36;;;;;;;20.27;5.43;;;;;;;;;;691183;28;979;-61
2021/11/13 01:07:56;;;;;;;22.00;5.57;;;;;;;;;;691145;28;988;-61
2021/11/13 01:08:22;;;;;;;20.20;5.50;;;;;;;;;;690960;28;907;-61
2021/11/13 01:08:47;;;;;;;18.70;5.07;;;;;;;;;;691086;28;864;-61
2021/11/13 01:09:07;;;;;;;22.30;5.35;;;;;;;;;;691131;28;849;-61
2021/11/13 01:09:27;;;;;;;18.83;5.43;;;;;;;;;;691100;28;809;-61
2021/11/13 01:09:50;;;;;;;17.43;5.07;;;;;;;;;;691203;28;997;-61
2021/11/13 01:10:11;;;;;;;19.10;5.10;;;;;;;;;;691055;28;1233;-61
2021/11/13 01:10:31;;;;;;;19.80;5.35;;;;;;;;;;691047;28;821;-61
2021/11/13 01:10:52;;;;;;;18.13;5.30;;;;;;;;;;691012;28;1042;-61
2021/11/13 01:11:12;;;;;;;21.27;5.53;;;;;;;;;;691202;28;1017;-61
2021/11/13 01:11:33;;;;;;;22.27;5.27;;;;;;;;;;691156;28;1030;-61
2021/11/13 01:11:57;;;;;;;24.50;5.45;;;;;;;;;;691299;28;836;-61
2021/11/13 01:12:17;;;;;;;18.77;5.30;;;;;;;;;;690922;28;1456;-62
2021/11/13 01:12:38;;;;;;;18.57;5.57;;;;;;;;;;690855;28;810;-62
2021/11/13 01:13:01;;;;;;;21.17;5.80;;;;;;;;;;690527;28;1258;-62
2021/11/13 01:13:22;;;;;;;20.90;5.97;;;;;;;;;;690994;28;944;-62
2021/11/13 01:13:45;;;;;;;21.50;6.03;;;;;;;;;;690809;28;904;-62
2021/11/13 01:14:05;;;;;;;23.55;6.10;;;;;;;;;;691047;28;1093;-62
2021/11/13 01:14:26;;;;;;;22.80;6.03;;;;;;;;;;691169;28;892;-62
2021/11/13 01:14:46;;;;;;;24.80;6.55;;;;;;;;;;691023;28;915;-61
2021/11/13 01:15:07;;;;;;;22.37;6.53;;;;;;;;;;691173;28;975;-62
2021/11/13 01:15:31;;;;;;;18.88;6.47;;;;;;;;;;691189;28;1012;-62
2021/11/13 01:15:51;;;;;;;22.70;6.50;;;;;;;;;;691261;28;971;-62
2021/11/13 01:16:11;;;;;;;22.97;6.97;;;;;;;;;;691298;28;805;-61
2021/11/13 01:16:32;;;;;;;23.83;7.57;;;;;;;;;;690990;28;1013;-62
2021/11/13 01:16:52;;;;;;;23.20;7.47;;;;;;;;;;691067;28;987;-62
2021/11/13 01:17:13;;;;;;;24.17;7.57;;;;;;;;;;690909;28;851;-63
2021/11/13 01:17:33;;;;;;;21.92;8.02;;;;;;;;;;691052;28;880;-62
2021/11/13 01:17:57;;;;;;;25.20;9.37;;;;;;;;;;691266;28;827;-62
2021/11/13 01:18:20;;;;;;;28.92;10.57;;;;;;;;;;691239;28;865;-63
2021/11/13 01:18:40;;;;;;;26.75;11.68;;;;;;;;;;691281;28;857;-62
2021/11/13 01:19:01;;;;;;;26.63;11.33;;;;;;;;;;691475;28;891;-63
2021/11/13 01:19:22;;;;;;;27.42;12.70;;;;;;;;;;691494;28;940;-62
2021/11/13 01:19:43;;;;;;;29.37;15.07;;;;;;;;;;691619;28;1003;-62
2021/11/13 01:20:04;;;;;;;30.92;15.73;;;;;;;;;;691932;28;1977;-62
2021/11/13 01:20:25;;;;;;;40.33;19.55;;;;;;;;;;691784;28;1214;-64
2021/11/13 01:20:46;;;;;;;43.35;22.02;;;;;;;;;;691725;28;841;-62
2021/11/13 01:21:06;;;;;;;37.63;23.40;;;;;;;;;;692168;28;817;-62
2021/11/13 01:21:26;;;;;;;40.53;24.73;;;;;;;;;;692054;28;947;-60
2021/11/13 01:21:46;;;;;;;43.53;24.53;;;;;;;;;;691695;28;878;-62
2021/11/13 01:22:07;;;;;;;42.87;23.93;;;;;;;;;;691519;28;995;-62
2021/11/13 01:22:27;;;;;;;41.73;23.57;;;;;;;;;;691437;28;939;-62
2021/11/13 01:22:48;;;;;;;36.03;20.47;;;;;;;;;;691044;28;801;-65
2021/11/13 01:23:08;;;;;;;34.88;18.58;;;;;;;;;;691039;28;1170;-61
2021/11/13 01:23:28;;;;;;;39.47;18.43;;;;;;;;;;691650;28;1015;-62
2021/11/13 01:23:49;;;;;;;36.03;18.83;;;;;;;;;;691512;28;817;-63
2021/11/13 01:24:09;;;;;;;35.75;18.08;;;;;;;;;;691778;28;1008;-63
2021/11/13 01:24:29;;;;;;;33.73;15.30;;;;;;;;;;691684;28;924;-63
2021/11/13 01:24:49;;;;;;;35.05;14.13;;;;;;;;;;691803;28;891;-63
2021/11/13 01:25:10;;;;;;;32.33;13.70;;;;;;;;;;691593;28;797;-63
2021/11/13 01:25:30;;;;;;;33.42;12.93;;;;;;;;;;691760;28;804;-62
2021/11/13 01:25:51;;;;;;;32.60;11.73;;;;;;;;;;691259;28;916;-62
2021/11/13 01:26:11;;;;;;;28.10;11.87;;;;;;;;;;691738;28;793;-62
2021/11/13 01:26:31;;;;;;;33.08;11.80;;;;;;;;;;691287;28;975;-63
2021/11/13 01:26:51;;;;;;;35.63;12.10;;;;;;;;;;691547;28;873;-62
2021/11/13 01:27:14;;;;;;;37.00;11.63;;;;;;;;;;690953;28;947;-63
2021/11/13 01:27:38;;;;;;;30.02;11.55;;;;;;;;;;691357;28;1005;-62
2021/11/13 01:27:58;;;;;;;31.55;11.20;;;;;;;;;;691056;28;833;-61
2021/11/13 01:28:18;;;;;;;31.90;11.30;;;;;;;;;;691131;28;769;-61
2021/11/13 01:28:38;;;;;;;32.63;11.53;;;;;;;;;;690966;28;891;-62
2021/11/13 01:28:58;;;;;;;28.93;11.30;;;;;;;;;;691091;28;838;-62
2021/11/13 01:29:19;;;;;;;30.47;11.30;;;;;;;;;;691088;28;817;-63
2021/11/13 01:29:39;;;;;;;31.67;11.23;;;;;;;;;;691064;28;1003;-62
2021/11/13 01:29:59;;;;;;;33.27;11.30;;;;;;;;;;691171;28;881;-64
2021/11/13 01:30:22;;;;;;;35.10;11.43;;;;;;;;;;690956;28;1031;-63
2021/11/13 01:30:42;;;;;;;32.42;11.35;;;;;;;;;;690772;28;844;-63
2021/11/13 01:31:06;;;;;;;35.17;11.17;;;;;;;;;;690902;28;980;-62
2021/11/13 01:31:29;;;;;;;32.17;11.23;;;;;;;;;;690661;28;1174;-63
2021/11/13 01:31:50;;;;;;;28.88;11.63;;;;;;;;;;690962;28;908;-63
2021/11/13 01:32:10;;;;;;;26.90;10.70;;;;;;;;;;690860;28;861;-63
2021/11/13 01:32:30;;;;;;;31.75;11.23;;;;;;;;;;690933;28;813;-63
2021/11/13 01:32:50;;;;;;;30.00;11.03;;;;;;;;;;690753;28;810;-62
2021/11/13 01:33:11;;;;;;;31.27;10.33;;;;;;;;;;690936;28;1232;-62
2021/11/13 01:33:31;;;;;;;27.70;9.13;;;;;;;;;;691067;28;875;-63
2021/11/13 01:33:56;;;;;;;25.07;8.23;;;;;;;;;;691181;28;788;-63
2021/11/13 01:34:16;;;;;;;24.08;5.97;;;;;;;;;;691048;28;877;-63
2021/11/13 01:34:39;;;;;;;18.63;5.27;;;;;;;;;;691057;28;842;-63
2021/11/13 01:34:59;;;;;;;23.08;5.20;;;;;;;;;;691028;28;966;-62
2021/11/13 01:35:24;;;;;;;25.05;5.20;;;;;;;;;;690778;28;841;-63
2021/11/13 01:35:44;;;;;;;20.80;4.72;;;;;;;;;;690882;28;822;-63
2021/11/13 01:36:07;;;;;;;22.10;4.90;;;;;;;;;;690883;28;808;-63
2021/11/13 01:36:27;;;;;;;22.42;4.70;;;;;;;;;;690804;28;920;-62
2021/11/13 01:36:47;;;;;;;21.47;4.37;;;;;;;;;;690883;28;965;-62
2021/11/13 01:37:08;;;;;;;19.03;4.37;;;;;;;;;;690816;28;1128;-63
2021/11/13 01:37:28;;;;;;;17.83;3.95;;;;;;;;;;690992;28;808;-63
2021/11/13 01:37:48;;;;;;;18.03;4.20;;;;;;;;;;691001;28;856;-63
2021/11/13 01:38:08;;;;;;;17.37;4.43;;;;;;;;;;691135;28;1040;-63
2021/11/13 01:38:29;;;;;;;20.20;4.20;;;;;;;;;;691006;28;990;-62
2021/11/13 01:38:49;;;;;;;18.05;4.05;;;;;;;;;;690998;28;840;-62
2021/11/13 01:39:09;;;;;;;19.10;4.07;;;;;;;;;;691067;28;919;-62
2021/11/13 01:39:29;;;;;;;21.93;4.33;;;;;;;;;;691085;28;1310;-63
2021/11/13 01:39:50;;;;;;;19.70;4.10;;;;;;;;;;690913;28;1906;-62
2021/11/13 01:40:13;;;;;;;18.23;3.93;;;;;;;;;;691116;28;942;-63
2021/11/13 01:40:33;;;;;;;17.98;4.25;;;;;;;;;;690869;28;978;-63
2021/11/13 01:40:54;;;;;;;17.20;4.20;;;;;;;;;;691029;28;1004;-63
2021/11/13 01:41:14;;;;;;;17.43;3.93;;;;;;;;;;691090;28;1100;-63
2021/11/13 01:41:34;;;;;;;15.23;3.80;;;;;;;;;;690888;28;790;-63
2021/11/13 01:41:57;;;;;;;16.55;4.03;;;;;;;;;;691094;28;864;-63
2021/11/13 01:42:17;;;;;;;17.83;4.07;;;;;;;;;;691103;28;959;-62
2021/11/13 01:42:37;;;;;;;18.80;3.90;;;;;;;;;;690783;28;848;-63
2021/11/13 01:42:58;;;;;;;18.30;3.80;;;;;;;;;;690549;28;1330;-63
2021/11/13 01:43:18;;;;;;;20.10;4.10;;;;;;;;;;691099;28;1027;-64
2021/11/13 01:43:39;;;;;;;18.43;4.10;;;;;;;;;;690839;28;951;-64
2021/11/13 01:43:59;;;;;;;17.05;3.70;;;;;;;;;;691144;28;1231;-64
2021/11/13 01:44:19;;;;;;;16.17;3.80;;;;;;;;;;691087;28;923;-63
2021/11/13 01:44:40;;;;;;;16.57;4.00;;;;;;;;;;690986;28;861;-64
2021/11/13 01:45:00;;;;;;;20.58;4.10;;;;;;;;;;690733;28;1065;-63
2021/11/13 01:45:21;;;;;;;18.07;3.87;;;;;;;;;;690816;28;947;-64
2021/11/13 01:45:41;;;;;;;21.15;3.90;;;;;;;;;;690882;28;892;-63
2021/11/13 01:46:02;;;;;;;18.83;3.87;;;;;;;;;;690742;28;905;-62
2021/11/13 01:46:22;;;;;;;19.92;4.00;;;;;;;;;;690763;28;955;-62
2021/11/13 01:46:42;;;;;;;17.67;3.63;;;;;;;;;;690392;28;1357;-63
2021/11/13 01:47:03;;;;;;;19.93;3.90;;;;;;;;;;690961;28;899;-64
2021/11/13 01:47:26;;;;;;;16.80;4.10;;;;;;;;;;690991;28;841;-64
2021/11/13 01:47:46;;;;;;;20.50;4.20;;;;;;;;;;691062;28;737;-64
2021/11/13 01:48:10;;;;;;;22.70;4.47;;;;;;;;;;690824;28;1140;-63
2021/11/13 01:48:30;;;;;;;18.50;4.00;;;;;;;;;;691111;28;1045;-63
2021/11/13 01:48:50;;;;;;;20.10;4.05;;;;;;;;;;691033;28;793;-64
2021/11/13 01:49:10;;;;;;;20.13;4.03;;;;;;;;;;690929;28;1050;-64
2021/11/13 01:49:31;;;;;;;19.70;4.10;;;;;;;;;;691155;28;757;-64
2021/11/13 01:49:51;;;;;;;17.33;4.17;;;;;;;;;;691036;28;926;-63
2021/11/13 01:50:13;;;;;;;17.50;4.05;;;;;;;;;;690981;28;847;-63
2021/11/13 01:50:35;;;;;;;18.50;3.78;;;;;;;;;;691051;28;1098;-62
2021/11/13 01:50:56;;;;;;;15.57;3.67;;;;;;;;;;690858;28;818;-62
2021/11/13 01:51:19;;;;;;;16.00;3.80;;;;;;;;;;691150;28;872;-63
2021/11/13 01:51:40;;;;;;;18.00;3.80;;;;;;;;;;691039;28;853;-63
2021/11/13 01:52:00;;;;;;;16.75;3.75;;;;;;;;;;690903;28;838;-62
2021/11/13 01:52:21;;;;;;;15.33;3.70;;;;;;;;;;691045;28;1003;-63
2021/11/13 01:52:41;;;;;;;15.43;3.72;;;;;;;;;;690656;28;1074;-62
2021/11/13 01:53:01;;;;;;;15.43;3.87;;;;;;;;;;690676;28;1231;-61
2021/11/13 01:53:23;;;;;;;15.38;3.95;;;;;;;;;;691138;28;801;-63
2021/11/13 01:53:44;;;;;;;13.93;3.65;;;;;;;;;;690967;28;954;-63
2021/11/13 01:54:07;;;;;;;17.88;3.70;;;;;;;;;;690975;28;916;-62
2021/11/13 01:54:29;;;;;;;15.65;3.55;;;;;;;;;;690915;28;939;-62
2021/11/13 01:54:49;;;;;;;17.38;3.55;;;;;;;;;;690646;28;1017;-64
2021/11/13 01:55:10;;;;;;;17.60;3.70;;;;;;;;;;691029;28;773;-64
2021/11/13 01:55:34;;;;;;;17.55;3.60;;;;;;;;;;691051;28;812;-63
2021/11/13 01:55:56;;;;;;;15.60;3.60;;;;;;;;;;690687;28;1270;-63
2021/11/13 01:56:19;;;;;;;15.07;3.47;;;;;;;;;;690825;28;919;-64
2021/11/13 01:56:40;;;;;;;14.65;3.60;;;;;;;;;;690754;28;888;-61
2021/11/13 01:57:02;;;;;;;19.75;3.92;;;;;;;;;;690691;28;875;-62
2021/11/13 01:57:23;;;;;;;19.08;3.60;;;;;;;;;;690884;28;852;-64
2021/11/13 01:57:45;;;;;;;18.88;3.80;;;;;;;;;;690818;28;951;-63
2021/11/13 01:58:07;;;;;;;14.75;3.67;;;;;;;;;;690918;28;968;-63
2021/11/13 01:58:27;;;;;;;13.43;3.38;;;;;;;;;;690896;28;856;-63
2021/11/13 01:58:49;;;;;;;14.90;3.67;;;;;;;;;;690977;28;857;-63
2021/11/13 01:59:10;;;;;;;14.57;3.63;;;;;;;;;;690976;28;880;-62
2021/11/13 01:59:30;;;;;;;14.95;3.78;;;;;;;;;;690946;28;991;-62
2021/11/13 01:59:51;;;;;;;13.00;3.30;;;;;;;;;;690961;28;1976;-63
2021/11/13 02:00:17;;;;;;;14.65;3.60;;;;;;;;;;690912;28;883;-62
2021/11/13 02:00:46;;;;;;;12.20;3.25;;;;;;;;;;690895;28;842;-62
2021/11/13 02:01:06;;;;;;;14.60;3.35;;;;;;;;;;690965;28;939;-63
2021/11/13 02:01:26;;;;;;;14.88;3.75;;;;;;;;;;690947;28;968;-62
2021/11/13 02:01:47;;;;;;;15.97;3.43;;;;;;;;;;690979;28;877;-62
2021/11/13 02:02:07;;;;;;;15.68;3.42;;;;;;;;;;690870;28;887;-62
2021/11/13 02:02:28;;;;;;;14.00;3.37;;;;;;;;;;690971;28;874;-63
2021/11/13 02:02:48;;;;;;;14.98;3.50;;;;;;;;;;690468;28;1296;-62
2021/11/13 02:03:08;;;;;;;16.37;3.80;;;;;;;;;;690885;28;1034;-62
2021/11/13 02:03:31;;;;;;;12.73;3.67;;;;;;;;;;691040;28;983;-64
2021/11/13 02:03:52;;;;;;;13.65;3.50;;;;;;;;;;691076;28;925;-63
2021/11/13 02:04:12;;;;;;;16.40;3.85;;;;;;;;;;690964;28;879;-63
2021/11/13 02:04:32;;;;;;;16.87;4.03;;;;;;;;;;690875;28;891;-64
2021/11/13 02:04:53;;;;;;;12.75;3.28;;;;;;;;;;690866;28;983;-62
2021/11/13 02:05:13;;;;;;;12.43;3.83;;;;;;;;;;690947;28;813;-63
2021/11/13 02:05:33;;;;;;;14.53;3.70;;;;;;;;;;691112;28;809;-64
2021/11/13 02:05:53;;;;;;;14.85;3.47;;;;;;;;;;690917;28;877;-64
2021/11/13 02:06:14;;;;;;;13.27;3.30;;;;;;;;;;691080;28;815;-63
2021/11/13 02:06:34;;;;;;;14.73;3.60;;;;;;;;;;690887;28;1002;-63
2021/11/13 02:06:55;;;;;;;13.93;3.47;;;;;;;;;;690824;28;872;-64
2021/11/13 02:07:15;;;;;;;14.97;3.57;;;;;;;;;;690976;28;974;-63